BST,Max TemperatureF,Mean TemperatureF,Min TemperatureF,Max Dew PointF,MeanDew PointF,Min DewpointF,Max Humidity, Mean Humidity, Min Humidity, Max Sea Level PressureIn, Mean Sea Level PressureIn, Min Sea Level PressureIn, Max VisibilityMiles, Mean VisibilityMiles, Min VisibilityMiles, Max Wind SpeedMPH, Mean Wind SpeedMPH, Max Gust SpeedMPH,PrecipitationIn, CloudCover, Events, WindDirDegrees
2012-8-1,68,62,55,61,57,54,100,88,68,29.71,29.57,29.50,6,6,3,15,9,25,0.00,6,Rain,129
2012-8-2,68,57,46,55,51,46,100,82,56,29.74,29.68,29.59,6,6,0,12,4,,0.00,4,Fog,254
2012-8-3,64,53,42,59,53,43,100,89,72,29.80,29.77,29.74,6,6,2,8,3,,0.00,5,Fog-Rain,46
2012-8-4,71,62,53,57,55,54,100,86,53,29.80,29.77,29.74,6,5,0,10,3,,0.00,3,Fog-Rain-Thunderstorm,28
2012-8-5,62,60,55,57,56,55,100,91,77,29.74,29.71,29.68,6,6,3,8,5,,0.00,7,Rain,39
2012-8-6,66,60,51,57,55,50,100,89,73,29.86,29.73,29.65,6,6,3,10,4,,0.00,6,Rain,260
2012-8-7,66,56,46,54,50,45,100,80,60,30.12,30.00,29.86,6,6,6,15,6,,0.00,2,,259
2012-8-8,68,55,42,54,49,43,100,78,56,30.24,30.19,30.12,6,6,6,10,5,,0.00,1,,254
2012-8-9,66,54,42,54,50,43,100,82,64,30.36,30.30,30.27,6,6,6,10,4,,0.00,1,,282
2012-8-10,73,58,44,57,52,45,100,78,53,30.39,30.33,30.27,6,6,3,12,3,,0.00,1,Fog,48
2012-8-11,68,60,53,55,54,52,94,78,60,30.30,30.18,30.04,6,6,6,18,10,,0.00,5,,68
2012-8-12,69,63,57,57,54,52,94,75,53,30.04,29.92,29.80,6,6,4,16,11,,0.00,3,Rain,81
2012-8-13,69,64,59,63,59,57,94,88,68,29.80,29.73,29.68,6,6,4,13,10,20,0.00,5,Rain,96
2012-8-14,69,62,55,63,59,54,100,85,68,29.86,29.77,29.71,6,6,6,9,6,,0.00,4,Rain,138
2012-8-15,71,61,51,61,57,52,100,88,69,29.86,29.68,29.50,6,6,1,24,11,54,0.00,3,Rain,75
2012-8-16,68,62,57,59,56,54,100,78,64,29.86,29.71,29.53,6,6,4,16,11,,0.00,5,Rain-Thunderstorm,160
2012-8-17,69,63,57,64,60,57,100,90,73,29.83,29.71,29.65,6,6,2,17,9,,0.00,5,Rain,121
2012-8-18,69,63,57,63,60,54,100,87,68,29.98,29.81,29.71,6,5,1,16,6,,0.00,6,Rain,221
2012-8-19,69,60,50,59,55,48,100,88,64,30.01,29.99,29.98,6,6,3,10,4,,0.00,3,Fog-Rain,103
2012-8-20,69,60,50,59,57,50,100,85,64,30.04,29.99,29.98,6,6,3,18,7,,0.00,5,Fog-Rain,214
2012-8-21,69,62,55,59,56,52,94,80,60,30.04,29.90,29.77,6,6,0,18,5,,0.00,4,Fog-Rain,232
2012-8-22,64,60,55,57,55,54,100,87,68,29.86,29.81,29.77,6,6,3,20,10,,0.00,5,Rain,248
2012-8-23,64,58,53,55,52,30,100,82,34,29.86,29.81,29.74,6,6,6,16,11,,0.00,4,Rain,227
2012-8-24,64,60,55,55,53,50,100,83,59,29.71,29.63,29.56,6,6,6,8,5,,0.00,4,Rain,178
2012-8-25,66,58,51,55,54,52,100,91,64,29.80,29.63,29.56,6,5,0,8,3,,0.00,4,Fog-Rain,18
2012-8-26,59,54,50,54,50,46,100,86,63,29.98,29.93,29.80,6,6,4,10,5,,0.00,6,Rain,84
2012-8-27,60,56,51,59,55,50,94,90,82,29.92,29.63,29.47,6,6,2,16,9,24,0.00,6,Rain,138
2012-8-28,64,58,53,55,52,50,94,80,59,29.74,29.66,29.50,6,6,6,26,14,36,0.00,3,,219
2012-8-29,66,57,46,55,52,46,100,82,60,29.74,29.64,29.59,6,6,4,16,7,21,0.00,4,Rain,178
2012-8-30,60,50,41,48,42,39,100,70,45,30.36,30.10,29.77,6,6,6,12,6,,0.00,3,,304
2012-8-31,59,48,37,57,47,37,100,91,76,30.36,30.31,30.21,6,6,4,14,5,,0.00,5,Rain,236